createdAt,value
2022-12-25T00:01:41.026Z,-1.86
2022-12-25T00:04:11.030Z,-1.84
2022-12-25T00:06:40.777Z,-1.80
2022-12-25T00:09:10.965Z,-1.77
2022-12-25T00:11:40.586Z,-1.77
2022-12-25T00:14:10.578Z,-1.79
2022-12-25T00:16:41.696Z,-1.80
2022-12-25T00:19:11.905Z,-1.75
2022-12-25T00:21:41.556Z,-1.73
2022-12-25T00:24:11.558Z,-1.72
2022-12-25T00:26:41.286Z,-1.72
2022-12-25T00:29:13.606Z,-1.73
2022-12-25T00:31:44.644Z,-1.71
2022-12-25T00:34:15.050Z,-1.69
2022-12-25T00:36:44.757Z,-1.71
2022-12-25T00:39:14.955Z,-1.69
2022-12-25T00:42:01.685Z,-1.69
2022-12-25T00:44:31.810Z,-1.66
2022-12-25T00:47:03.182Z,-1.64
2022-12-25T00:49:33.565Z,-1.63
2022-12-25T00:52:03.072Z,-1.63
2022-12-25T00:54:32.938Z,-1.63
2022-12-25T00:57:02.755Z,-1.62
2022-12-25T00:59:33.061Z,-1.61
2022-12-25T01:02:17.897Z,-1.63
2022-12-25T01:04:47.819Z,-1.61
2022-12-25T01:07:18.341Z,-1.62
2022-12-25T01:10:06.012Z,-1.61
2022-12-25T01:12:40.364Z,-1.60
2022-12-25T01:15:11.381Z,-1.60
2022-12-25T01:17:42.598Z,-1.56
2022-12-25T01:20:12.986Z,-1.58
2022-12-25T01:22:42.676Z,-1.63
2022-12-25T01:25:13.294Z,-1.62
2022-12-25T01:27:42.978Z,-1.60
2022-12-25T01:30:13.195Z,-1.58
2022-12-25T01:32:44.241Z,-1.58
2022-12-25T01:35:14.292Z,-1.58
2022-12-25T01:37:43.974Z,-1.60
2022-12-25T01:40:14.228Z,-1.59
2022-12-25T01:42:43.803Z,-1.59
2022-12-25T01:45:29.024Z,-1.56
2022-12-25T01:48:00.278Z,-1.55
2022-12-25T01:50:30.349Z,-1.57
2022-12-25T01:53:00.212Z,-1.59
2022-12-25T01:55:30.687Z,-1.59
2022-12-25T01:58:00.301Z,-1.56
2022-12-25T02:00:30.165Z,-1.56
2022-12-25T02:03:01.598Z,-1.57
2022-12-25T02:05:32.363Z,-1.56
2022-12-25T02:08:03.646Z,-1.55
2022-12-25T02:10:33.588Z,-1.55
2022-12-25T02:13:03.569Z,-1.54
2022-12-25T02:15:38.412Z,-1.54
2022-12-25T02:18:13.685Z,-1.53
2022-12-25T02:20:58.263Z,-1.54
2022-12-25T02:23:54.854Z,-1.57
2022-12-25T02:26:33.700Z,-1.57
2022-12-25T02:29:06.964Z,-1.59
2022-12-25T02:31:40.806Z,-1.59
2022-12-25T02:34:12.253Z,-1.59
2022-12-25T02:36:44.753Z,-1.59
2022-12-25T02:39:33.849Z,-1.59
2022-12-25T02:42:07.210Z,-1.58
2022-12-25T02:44:58.386Z,-1.58
2022-12-25T02:47:46.022Z,-1.60
2022-12-25T02:50:33.645Z,-1.58
2022-12-25T02:53:22.225Z,-1.59
2022-12-25T02:56:09.868Z,-1.60
2022-12-25T02:58:58.565Z,-1.60
2022-12-25T03:01:51.165Z,-1.58
2022-12-25T03:04:40.715Z,-1.56
2022-12-25T03:07:12.276Z,-1.55
2022-12-25T03:10:00.896Z,-1.54
2022-12-25T03:12:37.286Z,-1.53
2022-12-25T03:15:25.560Z,-1.55
2022-12-25T03:17:57.925Z,-1.54
2022-12-25T03:20:44.909Z,-1.53
2022-12-25T03:23:33.978Z,-1.48
2022-12-25T03:26:21.391Z,-1.51
2022-12-25T03:28:51.011Z,-1.52
2022-12-25T03:31:21.957Z,-1.53
2022-12-25T03:34:20.899Z,-1.52
2022-12-25T03:37:00.329Z,-1.54
2022-12-25T03:40:07.229Z,-1.53
2022-12-25T03:42:56.275Z,-1.52
2022-12-25T03:45:47.088Z,-1.51
2022-12-25T03:48:35.769Z,-1.50
2022-12-25T03:51:26.731Z,-1.48
2022-12-25T03:54:15.562Z,-1.47
2022-12-25T03:57:03.143Z,-1.47
2022-12-25T03:59:51.316Z,-1.45
2022-12-25T04:02:38.437Z,-1.44
2022-12-25T04:05:26.250Z,-1.39
2022-12-25T04:08:14.653Z,-1.40
2022-12-25T04:11:02.290Z,-1.39
2022-12-25T04:13:49.229Z,-1.36
2022-12-25T04:16:36.481Z,-1.34
2022-12-25T04:19:23.241Z,-1.32
2022-12-25T04:22:10.398Z,-1.32
2022-12-25T04:24:58.973Z,-1.30
2022-12-25T04:27:46.171Z,-1.27
2022-12-25T04:30:33.065Z,-1.26
2022-12-25T04:33:20.151Z,-1.25
2022-12-25T04:36:07.814Z,-1.23
2022-12-25T04:38:38.379Z,-1.22
2022-12-25T04:41:10.037Z,-1.21
2022-12-25T04:43:39.996Z,-1.22
2022-12-25T04:46:09.896Z,-1.22
2022-12-25T04:48:39.903Z,-1.21
2022-12-25T04:51:13.799Z,-1.22
2022-12-25T04:53:44.178Z,-1.19
2022-12-25T04:56:15.387Z,-1.18
2022-12-25T04:58:45.806Z,-1.19
2022-12-25T05:01:15.644Z,-1.18
2022-12-25T05:03:45.827Z,-1.19
2022-12-25T05:06:15.434Z,-1.17
2022-12-25T05:08:45.430Z,-1.16
2022-12-25T05:11:17.286Z,-1.15
2022-12-25T05:13:47.272Z,-1.18
2022-12-25T05:16:17.985Z,-1.17
2022-12-25T05:18:50.047Z,-1.18
2022-12-25T05:21:20.244Z,-1.16
2022-12-25T05:23:51.515Z,-1.17
2022-12-25T05:26:24.021Z,-1.17
2022-12-25T05:28:54.031Z,-1.17
2022-12-25T05:31:23.897Z,-1.16
2022-12-25T05:33:54.292Z,-1.16
2022-12-25T05:36:23.917Z,-1.15
2022-12-25T05:38:53.852Z,-1.15
2022-12-25T05:41:27.887Z,-1.17
2022-12-25T05:44:02.187Z,-1.18
2022-12-25T05:46:31.875Z,-1.15
2022-12-25T05:49:01.863Z,-1.16
2022-12-25T05:51:32.143Z,-1.16
2022-12-25T05:54:02.060Z,-1.14
2022-12-25T05:56:33.103Z,-1.14
2022-12-25T05:59:03.212Z,-1.10
2022-12-25T06:01:32.866Z,-1.15
2022-12-25T06:04:07.003Z,-1.16
2022-12-25T06:06:39.805Z,-1.16
2022-12-25T06:09:10.392Z,-1.19
2022-12-25T06:11:41.454Z,-1.19
2022-12-25T06:14:13.452Z,-1.17
2022-12-25T06:16:43.164Z,-1.19
2022-12-25T06:19:13.227Z,-1.19
2022-12-25T06:21:43.109Z,-1.20
2022-12-25T06:24:19.181Z,-1.16
2022-12-25T06:26:52.208Z,-1.17
2022-12-25T06:29:22.146Z,-1.19
2022-12-25T06:31:57.363Z,-1.20
2022-12-25T06:34:27.633Z,-1.19
2022-12-25T06:36:57.248Z,-1.17
2022-12-25T06:39:27.147Z,-1.17
2022-12-25T06:41:58.229Z,-1.16
2022-12-25T06:44:28.267Z,-1.16
2022-12-25T06:46:57.832Z,-1.18
2022-12-25T06:49:27.933Z,-1.19
2022-12-25T06:51:57.518Z,-1.21
2022-12-25T06:54:27.515Z,-1.19
2022-12-25T06:56:58.667Z,-1.19
2022-12-25T06:59:28.708Z,-1.20
2022-12-25T07:01:59.063Z,-1.20
2022-12-25T07:04:32.358Z,-1.21
2022-12-25T07:07:08.131Z,-1.20
2022-12-25T07:09:39.466Z,-1.19
2022-12-25T07:12:17.332Z,-1.22
2022-12-25T07:14:49.359Z,-1.23
2022-12-25T07:17:18.837Z,-1.24
2022-12-25T07:19:48.825Z,-1.24
2022-12-25T07:22:18.607Z,-1.22
2022-12-25T07:24:48.587Z,-1.23
2022-12-25T07:27:19.469Z,-1.20
2022-12-25T07:29:49.400Z,-1.19
2022-12-25T07:32:19.601Z,-1.19
2022-12-25T07:34:49.534Z,-1.19
2022-12-25T07:37:19.099Z,-1.17
2022-12-25T07:39:49.549Z,-1.15
2022-12-25T07:42:25.030Z,-1.12
2022-12-25T07:44:57.430Z,-1.12
2022-12-25T07:47:27.143Z,-1.12
2022-12-25T07:49:57.134Z,-1.12
2022-12-25T07:52:26.792Z,-1.10
2022-12-25T07:54:56.735Z,-1.09
2022-12-25T07:57:28.059Z,-1.06
2022-12-25T07:59:58.059Z,-1.03
2022-12-25T08:02:29.354Z,-1.02
2022-12-25T08:04:59.685Z,-1.03
2022-12-25T08:07:29.244Z,-0.99
2022-12-25T08:09:59.161Z,-0.97
2022-12-25T08:12:30.234Z,-0.96
2022-12-25T08:15:00.258Z,-0.94
2022-12-25T08:17:30.087Z,-0.94
2022-12-25T08:20:00.306Z,-0.91
2022-12-25T08:22:29.905Z,-0.89
2022-12-25T08:24:59.895Z,-0.86
2022-12-25T08:27:30.881Z,-0.86
2022-12-25T08:30:00.905Z,-0.83
2022-12-25T08:32:30.615Z,-0.79
2022-12-25T08:35:00.631Z,-0.74
2022-12-25T08:37:31.482Z,-0.77
2022-12-25T08:40:01.435Z,-0.76
2022-12-25T08:42:32.672Z,-0.76
2022-12-25T08:45:02.878Z,-0.74
2022-12-25T08:47:32.628Z,-0.72
2022-12-25T08:50:02.580Z,-0.68
2022-12-25T08:52:32.545Z,-0.64
2022-12-25T08:55:02.499Z,-0.61
2022-12-25T08:57:33.525Z,-0.61
2022-12-25T09:00:04.125Z,-0.61
2022-12-25T09:02:33.981Z,-0.61
2022-12-25T09:05:04.130Z,-0.63
2022-12-25T09:07:33.773Z,-0.62
2022-12-25T09:10:03.774Z,-0.63
2022-12-25T09:12:35.054Z,-0.64
2022-12-25T09:15:06.034Z,-0.61
2022-12-25T09:17:35.809Z,-0.60
2022-12-25T09:20:06.325Z,-0.58
2022-12-25T09:22:36.053Z,-0.60
2022-12-25T09:25:06.337Z,-0.60
2022-12-25T09:27:37.581Z,-0.59
2022-12-25T09:30:08.466Z,-0.57
2022-12-25T09:32:40.544Z,-0.56
2022-12-25T09:35:10.729Z,-0.56
2022-12-25T09:37:40.569Z,-0.51
2022-12-25T09:40:12.253Z,-0.51
2022-12-25T09:42:43.623Z,-0.51
2022-12-25T09:45:16.311Z,-0.49
2022-12-25T09:47:48.448Z,-0.50
2022-12-25T09:50:20.472Z,-0.45
2022-12-25T09:52:52.235Z,-0.46
2022-12-25T09:55:23.503Z,-0.45
2022-12-25T09:57:56.155Z,-0.48
2022-12-25T10:00:27.324Z,-0.44
2022-12-25T10:03:08.046Z,-0.43
2022-12-25T10:05:49.194Z,-0.41
2022-12-25T10:08:24.217Z,-0.40
2022-12-25T10:11:00.385Z,-0.36
2022-12-25T10:13:44.627Z,-0.33
2022-12-25T10:16:19.582Z,-0.33
2022-12-25T10:18:57.573Z,-0.30
2022-12-25T10:21:28.374Z,-0.28
2022-12-25T10:24:05.611Z,-0.28
2022-12-25T10:26:35.942Z,-0.24
2022-12-25T10:29:11.213Z,-0.19
2022-12-25T10:31:42.182Z,-0.19
2022-12-25T10:34:13.524Z,-0.16
2022-12-25T10:36:45.325Z,-0.12
2022-12-25T10:39:17.821Z,-0.13
2022-12-25T10:41:59.483Z,-0.10
2022-12-25T10:44:30.676Z,-0.07
2022-12-25T10:47:01.793Z,-0.04
2022-12-25T10:49:33.339Z,-0.03
2022-12-25T10:52:04.233Z,-0.03
2022-12-25T10:54:35.334Z,0.00
2022-12-25T10:57:06.346Z,-0.01
2022-12-25T10:59:43.223Z,-0.02
2022-12-25T11:02:16.600Z,0.06
2022-12-25T11:04:46.418Z,0.06
2022-12-25T11:07:21.074Z,0.07
2022-12-25T11:09:51.593Z,0.08
2022-12-25T11:12:22.574Z,0.09
2022-12-25T11:14:57.808Z,0.13
2022-12-25T11:17:28.397Z,0.16
2022-12-25T11:19:59.024Z,0.13
2022-12-25T11:22:30.023Z,0.14
2022-12-25T11:25:12.936Z,0.13
2022-12-25T11:27:48.952Z,0.16
2022-12-25T11:30:23.435Z,0.16
2022-12-25T11:32:56.491Z,0.13
2022-12-25T11:35:29.722Z,0.15
2022-12-25T11:37:59.827Z,0.15
2022-12-25T11:40:30.695Z,0.17
2022-12-25T11:43:08.203Z,0.17
2022-12-25T11:45:40.754Z,0.19
2022-12-25T11:48:16.285Z,0.17
2022-12-25T11:50:48.444Z,0.17
2022-12-25T11:53:20.826Z,0.20
2022-12-25T11:55:55.080Z,0.21
2022-12-25T11:58:26.414Z,0.21
2022-12-25T12:00:58.865Z,0.20
2022-12-25T12:03:31.294Z,0.22
2022-12-25T12:06:03.939Z,0.22
2022-12-25T12:08:35.667Z,0.21
2022-12-25T12:11:17.588Z,0.19
2022-12-25T12:14:05.357Z,0.15
2022-12-25T12:16:37.050Z,0.11
2022-12-25T12:19:14.310Z,0.11
2022-12-25T12:21:50.192Z,0.10
2022-12-25T12:24:21.232Z,0.11
2022-12-25T12:27:01.458Z,0.09
2022-12-25T12:29:32.770Z,0.08
2022-12-25T12:32:05.449Z,0.07
2022-12-25T12:34:40.700Z,0.05
2022-12-25T12:37:22.868Z,0.03
2022-12-25T12:39:55.666Z,0.01
2022-12-25T12:42:27.483Z,-0.02
2022-12-25T12:44:58.842Z,-0.04
2022-12-25T12:47:31.671Z,-0.04
2022-12-25T12:50:02.960Z,-0.02
2022-12-25T12:52:34.023Z,0.00
2022-12-25T12:55:05.823Z,0.02
2022-12-25T12:57:40.137Z,0.07
2022-12-25T13:00:18.872Z,0.03
2022-12-25T13:03:19.177Z,0.04
2022-12-25T13:05:52.011Z,0.05
2022-12-25T13:08:29.992Z,0.02
2022-12-25T13:11:06.933Z,0.01
2022-12-25T13:13:38.192Z,0.01
2022-12-25T13:16:08.566Z,0.02
2022-12-25T13:18:40.862Z,0.01
2022-12-25T13:21:17.570Z,0.03
2022-12-25T13:23:47.162Z,0.03
2022-12-25T13:26:18.099Z,0.04
2022-12-25T13:28:48.621Z,0.02
2022-12-25T13:31:20.891Z,0.02
2022-12-25T13:33:54.296Z,0.01
2022-12-25T13:36:24.392Z,-0.01
2022-12-25T13:38:55.651Z,0.00
2022-12-25T13:41:45.304Z,-0.01
2022-12-25T13:44:18.168Z,-0.03
2022-12-25T13:46:48.689Z,-0.05
2022-12-25T13:49:21.502Z,-0.05
2022-12-25T13:51:52.090Z,-0.04
2022-12-25T13:54:21.675Z,-0.05
2022-12-25T13:56:52.374Z,-0.05
2022-12-25T13:59:23.093Z,-0.04
2022-12-25T14:01:54.440Z,-0.03
2022-12-25T14:04:25.952Z,-0.03
2022-12-25T14:06:56.056Z,-0.04
2022-12-25T14:09:25.785Z,-0.02
2022-12-25T14:11:55.812Z,-0.05
2022-12-25T14:14:26.557Z,-0.04
2022-12-25T14:16:57.925Z,-0.05
2022-12-25T14:19:30.666Z,-0.07
2022-12-25T14:22:01.800Z,-0.05
2022-12-25T14:24:35.583Z,-0.06
2022-12-25T14:27:07.486Z,-0.06
2022-12-25T14:29:39.380Z,-0.08
2022-12-25T14:32:14.393Z,-0.06
2022-12-25T14:34:46.611Z,-0.07
2022-12-25T14:37:18.204Z,-0.05
2022-12-25T14:39:55.516Z,-0.06
2022-12-25T14:42:26.352Z,-0.06
2022-12-25T14:45:00.719Z,-0.07
2022-12-25T14:47:31.461Z,-0.07
2022-12-25T14:50:02.840Z,-0.08
2022-12-25T14:52:39.238Z,-0.10
2022-12-25T14:55:18.916Z,-0.13
2022-12-25T14:57:49.822Z,-0.13
2022-12-25T15:00:24.026Z,-0.14
2022-12-25T15:02:56.023Z,-0.14
2022-12-25T15:05:29.384Z,-0.15
2022-12-25T15:08:00.931Z,-0.15
2022-12-25T15:13:21.024Z,-0.14
2022-12-25T15:15:52.849Z,-0.14
2022-12-25T15:18:24.628Z,-0.13
2022-12-25T15:20:56.573Z,-0.12
2022-12-25T15:23:26.929Z,-0.12
2022-12-25T15:25:56.692Z,-0.12
2022-12-25T15:28:26.656Z,-0.15
2022-12-25T15:30:56.408Z,-0.15
2022-12-25T15:33:26.503Z,-0.15
2022-12-25T15:35:57.976Z,-0.15
2022-12-25T15:38:28.013Z,-0.16
2022-12-25T15:40:57.690Z,-0.16
2022-12-25T15:43:42.860Z,-0.15
2022-12-25T15:46:12.522Z,-0.14
2022-12-25T15:48:42.572Z,-0.15
2022-12-25T15:51:13.571Z,-0.14
2022-12-25T15:53:43.601Z,-0.13
2022-12-25T15:56:13.703Z,-0.11
2022-12-25T15:58:44.012Z,-0.11
2022-12-25T16:01:16.061Z,-0.10
2022-12-25T16:03:46.436Z,-0.09
2022-12-25T16:06:18.939Z,-0.07
2022-12-25T16:08:49.042Z,-0.06
2022-12-25T16:11:18.777Z,-0.05
2022-12-25T16:13:48.754Z,-0.05
2022-12-25T16:16:19.371Z,-0.06
2022-12-25T16:18:49.692Z,-0.05
2022-12-25T16:21:22.480Z,-0.04
2022-12-25T16:23:52.770Z,-0.06
2022-12-25T16:26:22.307Z,-0.05
2022-12-25T16:28:52.422Z,-0.04
2022-12-25T16:31:22.186Z,-0.04
2022-12-25T16:33:52.383Z,-0.02
2022-12-25T16:36:26.895Z,-0.03
2022-12-25T16:38:57.326Z,-0.02
2022-12-25T16:41:27.033Z,-0.03
2022-12-25T16:43:56.919Z,-0.03
2022-12-25T16:46:26.575Z,-0.02
2022-12-25T16:48:56.972Z,0.01
2022-12-25T16:51:28.071Z,-0.01
2022-12-25T16:53:58.231Z,-0.01
2022-12-25T16:56:31.112Z,-0.01
2022-12-25T16:59:01.292Z,-0.01
2022-12-25T17:01:31.150Z,-0.01
2022-12-25T17:04:02.620Z,-0.02
2022-12-25T17:06:33.803Z,0.00
2022-12-25T17:09:03.995Z,0.01
2022-12-25T17:11:34.051Z,0.01
2022-12-25T17:14:05.604Z,0.01
2022-12-25T17:16:37.547Z,0.01
2022-12-25T17:19:09.940Z,0.00
2022-12-25T17:21:41.109Z,0.02
2022-12-25T17:24:11.801Z,0.02
2022-12-25T17:26:41.983Z,0.03
2022-12-25T17:29:15.949Z,0.03
2022-12-25T17:31:50.122Z,0.04
2022-12-25T17:34:20.348Z,0.06
2022-12-25T17:36:51.498Z,0.04
2022-12-25T17:39:21.535Z,0.04
2022-12-25T17:41:51.893Z,0.05
2022-12-25T17:44:22.549Z,0.05
2022-12-25T17:46:52.498Z,0.04
2022-12-25T17:49:23.161Z,0.04
2022-12-25T17:51:55.352Z,0.04
2022-12-25T17:54:25.449Z,0.05
2022-12-25T17:56:55.112Z,0.06
2022-12-25T17:59:29.756Z,0.05
2022-12-25T18:01:59.742Z,0.05
2022-12-25T18:04:29.891Z,0.05
2022-12-25T18:07:01.050Z,0.05
2022-12-25T18:09:31.055Z,0.05
2022-12-25T18:12:00.707Z,0.06
2022-12-25T18:14:30.760Z,0.07
2022-12-25T18:17:00.252Z,0.07
2022-12-25T18:19:30.376Z,0.08
2022-12-25T18:22:01.822Z,0.08
2022-12-25T18:24:31.769Z,0.08
2022-12-25T18:27:01.686Z,0.08
2022-12-25T18:29:31.683Z,0.09
2022-12-25T18:32:01.355Z,0.09
2022-12-25T18:34:31.758Z,0.10
2022-12-25T18:37:04.312Z,0.10
2022-12-25T18:39:34.690Z,0.13
2022-12-25T18:42:21.643Z,0.14
2022-12-25T18:44:51.800Z,0.15
2022-12-25T18:47:21.495Z,0.15
2022-12-25T18:49:51.124Z,0.15
2022-12-25T18:52:49.351Z,0.18
2022-12-25T18:55:12.653Z,0.20
2022-12-25T18:57:42.647Z,0.25
2022-12-25T19:00:12.642Z,0.26
2022-12-25T19:02:42.956Z,0.32
2022-12-25T19:05:12.834Z,0.36
2022-12-25T19:07:44.613Z,0.43
2022-12-25T19:10:14.274Z,0.45
2022-12-25T19:12:44.400Z,0.47
2022-12-25T19:15:14.080Z,0.52
2022-12-25T19:17:44.179Z,0.50
2022-12-25T19:20:14.037Z,0.51
2022-12-25T19:22:45.650Z,0.50
2022-12-25T19:25:15.264Z,0.53
2022-12-25T19:27:45.243Z,0.53
2022-12-25T19:30:15.241Z,0.54
2022-12-25T19:32:45.263Z,0.57
2022-12-25T19:35:14.948Z,0.58
2022-12-25T19:37:46.403Z,0.61
2022-12-25T19:40:16.205Z,0.63
2022-12-25T19:42:46.355Z,0.63
2022-12-25T19:45:15.970Z,0.65
2022-12-25T19:47:46.459Z,0.64
2022-12-25T19:50:16.165Z,0.64
2022-12-25T19:52:47.614Z,0.65
2022-12-25T19:55:20.364Z,0.62
2022-12-25T19:57:50.293Z,0.62
2022-12-25T20:00:20.090Z,0.62
2022-12-25T20:02:50.929Z,0.59
2022-12-25T20:05:21.607Z,0.60
2022-12-25T20:07:53.043Z,0.61
2022-12-25T20:10:22.764Z,0.61
2022-12-25T20:12:53.313Z,0.61
2022-12-25T20:15:22.925Z,0.63
2022-12-25T20:17:54.647Z,0.62
2022-12-25T20:20:24.302Z,0.62
2022-12-25T20:22:56.263Z,0.63
2022-12-25T20:25:26.964Z,0.64
2022-12-25T20:27:56.934Z,0.64
2022-12-25T20:30:26.612Z,0.64
2022-12-25T20:32:58.216Z,0.63
2022-12-25T20:35:27.847Z,0.64
2022-12-25T20:37:59.248Z,0.65
2022-12-25T20:40:28.923Z,0.64
2022-12-25T20:42:58.861Z,0.65
2022-12-25T20:45:28.424Z,0.65
2022-12-25T20:47:58.314Z,0.64
2022-12-25T20:50:28.106Z,0.65
2022-12-25T20:52:59.452Z,0.65
2022-12-25T20:55:29.239Z,0.66
2022-12-25T20:57:59.125Z,0.65
2022-12-25T21:00:29.051Z,0.67
2022-12-25T21:02:59.149Z,0.67
2022-12-25T21:05:28.952Z,0.68
2022-12-25T21:08:00.593Z,0.69
2022-12-25T21:10:30.295Z,0.69
2022-12-25T21:13:00.392Z,0.72
2022-12-25T21:15:30.157Z,0.74
2022-12-25T21:18:00.093Z,0.76
2022-12-25T21:20:29.876Z,0.77
2022-12-25T21:23:01.221Z,0.79
2022-12-25T21:25:31.101Z,0.79
2022-12-25T21:28:01.145Z,0.79
2022-12-25T21:30:30.988Z,0.78
2022-12-25T21:33:18.260Z,0.77
2022-12-25T21:35:48.023Z,0.79
2022-12-25T21:38:19.516Z,0.78
2022-12-25T21:40:49.170Z,0.80
2022-12-25T21:43:19.156Z,0.80
2022-12-25T21:45:48.889Z,0.82
2022-12-25T21:48:18.976Z,0.84
2022-12-25T21:51:05.697Z,0.80
2022-12-25T21:53:37.187Z,0.81
2022-12-25T21:56:07.043Z,0.85
2022-12-25T21:58:37.059Z,0.85
2022-12-25T22:01:07.232Z,0.85
2022-12-25T22:03:37.195Z,0.86
2022-12-25T22:06:24.366Z,0.90
2022-12-25T22:08:55.842Z,0.90
2022-12-25T22:11:44.526Z,0.90
2022-12-25T22:14:52.397Z,0.92
2022-12-25T22:17:42.357Z,0.93
2022-12-25T22:20:13.481Z,0.94
2022-12-25T22:22:43.701Z,0.97
2022-12-25T22:25:15.667Z,0.98
2022-12-25T22:27:45.926Z,0.98
2022-12-25T22:30:17.856Z,1.02
2022-12-25T22:32:48.039Z,1.03
2022-12-25T22:35:18.880Z,1.03
2022-12-25T22:37:49.947Z,1.02
2022-12-25T22:40:21.900Z,1.03
2022-12-25T22:42:54.779Z,1.04
2022-12-25T22:45:24.839Z,1.03
2022-12-25T22:47:54.718Z,1.04
2022-12-25T22:50:25.528Z,1.03
2022-12-25T22:52:55.255Z,1.04
2022-12-25T22:55:26.721Z,1.03
2022-12-25T22:57:58.361Z,1.02
2022-12-25T23:00:28.838Z,1.02
2022-12-25T23:02:58.729Z,1.01
2022-12-25T23:05:28.975Z,1.01
2022-12-25T23:07:58.832Z,1.00
2022-12-25T23:10:30.502Z,0.68
2022-12-25T23:13:17.229Z,1.05
2022-12-25T23:15:48.357Z,1.08
2022-12-25T23:18:35.180Z,1.08
2022-12-25T23:21:22.661Z,1.11
2022-12-25T23:24:09.630Z,1.14
2022-12-25T23:26:41.071Z,1.13
2022-12-25T23:29:27.739Z,1.12
2022-12-25T23:31:58.838Z,1.14
2022-12-25T23:34:28.459Z,1.14
2022-12-25T23:36:58.638Z,1.17
2022-12-25T23:39:28.838Z,1.19
2022-12-25T23:42:00.493Z,1.22
2022-12-25T23:44:30.230Z,1.23
2022-12-25T23:47:00.362Z,1.25
2022-12-25T23:49:30.869Z,1.27
2022-12-25T23:52:00.928Z,1.27
2022-12-25T23:54:31.604Z,1.25
2022-12-25T23:57:03.101Z,1.29
2022-12-25T23:59:33.070Z,1.30
